createdAt,value
2022-08-03T00:00:29.471Z,98.09
2022-08-03T00:02:56.541Z,98.07
2022-08-03T00:05:23.338Z,97.90
2022-08-03T00:07:50.126Z,97.71
2022-08-03T00:10:17.387Z,97.59
2022-08-03T00:12:44.270Z,97.43
2022-08-03T00:15:16.593Z,97.21
2022-08-03T00:17:52.597Z,97.39
2022-08-03T00:20:20.132Z,97.38
2022-08-03T00:22:46.949Z,97.43
2022-08-03T00:25:13.963Z,97.27
2022-08-03T00:27:40.717Z,97.62
2022-08-03T00:30:08.415Z,97.37
2022-08-03T00:32:35.106Z,97.52
2022-08-03T00:35:07.869Z,97.54
2022-08-03T00:37:41.356Z,97.61
2022-08-03T00:40:13.713Z,97.57
2022-08-03T00:42:54.734Z,97.45
2022-08-03T00:45:25.449Z,97.52
2022-08-03T00:47:52.693Z,97.45
2022-08-03T00:50:23.022Z,97.28
2022-08-03T00:52:52.635Z,97.16
2022-08-03T00:55:19.865Z,97.04
2022-08-03T00:57:46.965Z,96.97
2022-08-03T01:00:16.694Z,96.70
2022-08-03T01:02:43.876Z,96.67
2022-08-03T01:05:11.056Z,96.49
2022-08-03T01:07:49.941Z,96.46
2022-08-03T01:10:22.717Z,96.38
2022-08-03T01:13:02.646Z,96.36
2022-08-03T01:15:58.774Z,96.12
2022-08-03T01:18:59.808Z,96.06
2022-08-03T01:21:34.055Z,96.28
2022-08-03T01:24:22.289Z,96.07
2022-08-03T01:26:54.306Z,96.10
2022-08-03T01:29:55.129Z,96.14
2022-08-03T01:32:58.153Z,95.99
2022-08-03T01:35:26.119Z,95.82
2022-08-03T01:38:04.790Z,95.88
2022-08-03T01:40:34.519Z,95.70
2022-08-03T01:43:04.632Z,95.60
2022-08-03T01:45:34.232Z,95.77
2022-08-03T01:48:02.665Z,95.65
2022-08-03T01:50:31.972Z,95.58
2022-08-03T01:52:59.640Z,95.41
2022-08-03T01:55:30.012Z,95.36
2022-08-03T01:58:05.800Z,95.17
2022-08-03T02:00:36.931Z,95.00
2022-08-03T02:03:06.309Z,94.86
2022-08-03T02:05:34.163Z,94.86
2022-08-03T02:08:03.585Z,94.87
2022-08-03T02:10:34.884Z,94.69
2022-08-03T02:13:05.182Z,94.73
2022-08-03T02:15:33.864Z,94.67
2022-08-03T02:18:03.258Z,94.53
2022-08-03T02:20:33.261Z,94.40
2022-08-03T02:23:00.398Z,94.37
2022-08-03T02:25:28.374Z,94.32
2022-08-03T02:27:57.986Z,94.38
2022-08-03T02:30:38.553Z,94.24
2022-08-03T02:33:10.950Z,94.18
2022-08-03T02:35:40.077Z,94.14
2022-08-03T02:38:10.272Z,93.97
2022-08-03T02:40:38.688Z,94.09
2022-08-03T02:43:12.486Z,93.93
2022-08-03T02:45:45.916Z,93.88
2022-08-03T02:48:23.233Z,93.73
2022-08-03T02:50:53.068Z,93.58
2022-08-03T02:53:21.634Z,93.46
2022-08-03T02:55:50.153Z,93.47
2022-08-03T02:58:21.275Z,93.33
2022-08-03T03:00:49.669Z,93.31
2022-08-03T03:03:16.585Z,93.29
2022-08-03T03:05:54.518Z,93.07
2022-08-03T03:08:28.654Z,92.90
2022-08-03T03:10:59.451Z,92.69
2022-08-03T03:13:28.857Z,92.61
2022-08-03T03:15:57.772Z,92.38
2022-08-03T03:18:27.515Z,92.05
2022-08-03T03:20:55.810Z,91.92
2022-08-03T03:23:24.983Z,91.94
2022-08-03T03:25:53.312Z,91.96
2022-08-03T03:28:20.896Z,91.67
2022-08-03T03:30:52.726Z,91.32
2022-08-03T03:33:21.689Z,91.34
2022-08-03T03:35:48.858Z,91.06
2022-08-03T03:38:15.937Z,90.68
2022-08-03T03:40:43.152Z,90.60
2022-08-03T03:43:13.366Z,90.38
2022-08-03T03:45:43.596Z,90.42
2022-08-03T03:48:10.918Z,90.14
2022-08-03T03:50:41.075Z,90.17
2022-08-03T03:53:14.343Z,89.35
2022-08-03T03:55:59.111Z,89.00
2022-08-03T03:58:29.361Z,88.33
2022-08-03T04:00:56.298Z,88.85
2022-08-03T04:03:23.037Z,88.76
2022-08-03T04:06:08.994Z,88.39
2022-08-03T04:08:54.575Z,87.66
2022-08-03T04:11:38.664Z,86.87
2022-08-03T04:14:10.096Z,86.75
2022-08-03T04:16:43.690Z,85.54
2022-08-03T04:19:19.664Z,85.47
2022-08-03T04:21:53.035Z,84.86
2022-08-03T04:24:26.602Z,84.38
2022-08-03T04:26:56.230Z,84.04
2022-08-03T04:29:26.064Z,82.63
2022-08-03T04:31:55.784Z,82.04
2022-08-03T04:34:22.747Z,81.57
2022-08-03T04:36:55.178Z,81.05
2022-08-03T04:39:26.715Z,80.24
2022-08-03T04:42:02.184Z,79.61
2022-08-03T04:44:38.786Z,79.34
2022-08-03T04:47:05.784Z,79.33
2022-08-03T04:49:32.924Z,79.78
2022-08-03T04:51:59.972Z,79.77
2022-08-03T04:54:26.978Z,79.64
2022-08-03T04:56:53.763Z,79.07
2022-08-03T04:59:20.482Z,79.38
2022-08-03T05:01:47.423Z,78.92
2022-08-03T05:04:14.672Z,79.56
2022-08-03T05:06:48.149Z,79.60
2022-08-03T05:09:46.078Z,78.83
2022-08-03T05:12:06.082Z,79.26
2022-08-03T05:14:33.910Z,79.00
2022-08-03T05:17:00.680Z,79.49
2022-08-03T05:19:27.487Z,77.96
2022-08-03T05:21:54.341Z,75.94
2022-08-03T05:24:21.039Z,75.50
2022-08-03T05:26:47.892Z,74.36
2022-08-03T05:29:14.615Z,73.33
2022-08-03T05:31:41.556Z,72.64
2022-08-03T05:34:08.472Z,72.46
2022-08-03T05:36:35.232Z,72.36
2022-08-03T05:39:02.940Z,71.46
2022-08-03T05:41:36.791Z,72.16
2022-08-03T05:44:04.495Z,71.77
2022-08-03T05:46:31.420Z,72.45
2022-08-03T05:48:58.347Z,71.82
2022-08-03T05:51:25.153Z,71.09
2022-08-03T05:53:52.345Z,71.00
2022-08-03T05:56:23.799Z,69.59
2022-08-03T05:58:52.178Z,69.55
2022-08-03T06:01:21.892Z,67.57
2022-08-03T06:03:49.880Z,66.01
2022-08-03T06:06:17.194Z,65.19
2022-08-03T06:08:45.073Z,63.51
2022-08-03T06:11:12.962Z,62.53
2022-08-03T06:13:40.271Z,61.63
2022-08-03T06:16:07.157Z,59.88
2022-08-03T06:18:34.647Z,59.48
2022-08-03T06:21:14.787Z,59.44
2022-08-03T06:23:54.810Z,58.98
2022-08-03T06:26:27.006Z,58.28
2022-08-03T06:28:55.139Z,56.33
2022-08-03T06:31:25.975Z,54.59
2022-08-03T06:34:32.434Z,53.74
2022-08-03T06:36:48.497Z,53.59
2022-08-03T06:39:15.284Z,53.25
2022-08-03T06:41:44.912Z,52.67
2022-08-03T06:44:12.371Z,52.28
2022-08-03T06:46:39.358Z,51.70
2022-08-03T06:49:07.480Z,50.82
2022-08-03T06:52:06.174Z,50.83
2022-08-03T06:54:22.303Z,50.59
2022-08-03T06:56:49.322Z,50.56
2022-08-03T07:00:07.553Z,50.72
2022-08-03T07:02:03.863Z,50.88
2022-08-03T07:04:30.715Z,50.38
2022-08-03T07:06:58.558Z,49.03
2022-08-03T07:09:26.914Z,49.07
2022-08-03T07:11:54.563Z,49.11
2022-08-03T07:14:21.797Z,48.93
2022-08-03T07:16:49.734Z,48.54
2022-08-03T07:19:16.853Z,48.15
2022-08-03T07:21:43.712Z,47.89
2022-08-03T07:24:10.478Z,47.54
2022-08-03T07:26:37.197Z,47.92
2022-08-03T07:29:04.050Z,46.77
2022-08-03T07:31:42.242Z,45.83
2022-08-03T07:34:09.240Z,44.75
2022-08-03T07:36:36.056Z,43.06
2022-08-03T07:39:17.747Z,39.11
2022-08-03T07:41:45.495Z,35.71
2022-08-03T07:44:21.810Z,34.03
2022-08-03T07:46:48.619Z,32.46
2022-08-03T07:49:15.363Z,32.08
2022-08-03T07:51:42.321Z,30.98
2022-08-03T07:54:10.238Z,30.00
2022-08-03T07:56:37.566Z,29.83
2022-08-03T07:59:04.404Z,28.69
2022-08-03T08:01:35.940Z,28.52
2022-08-03T08:04:02.803Z,28.09
2022-08-03T08:06:29.810Z,27.91
2022-08-03T08:09:01.731Z,28.15
2022-08-03T08:11:28.490Z,27.77
2022-08-03T08:13:55.276Z,28.37
2022-08-03T08:16:22.034Z,28.39
2022-08-03T08:18:48.800Z,27.97
2022-08-03T08:21:15.593Z,27.89
2022-08-03T08:23:46.227Z,27.19
2022-08-03T08:26:17.331Z,27.55
2022-08-03T08:28:44.230Z,27.94
2022-08-03T08:31:11.042Z,28.56
2022-08-03T08:34:02.676Z,29.23
2022-08-03T08:36:24.685Z,30.28
2022-08-03T08:38:51.520Z,30.56
2022-08-03T08:41:18.356Z,31.54
2022-08-03T08:43:45.081Z,32.19
2022-08-03T08:46:13.114Z,33.57
2022-08-03T08:48:52.071Z,34.80
2022-08-03T08:51:20.702Z,35.13
2022-08-03T08:53:51.488Z,35.54
2022-08-03T08:56:19.956Z,36.25
2022-08-03T08:58:51.798Z,37.58
2022-08-03T09:01:19.525Z,37.39
2022-08-03T09:03:47.738Z,37.93
2022-08-03T09:06:15.183Z,38.73
2022-08-03T09:08:42.030Z,38.14
2022-08-03T09:11:09.599Z,37.24
2022-08-03T09:13:39.285Z,36.83
2022-08-03T09:16:20.311Z,36.44
2022-08-03T09:18:53.145Z,36.27
2022-08-03T09:21:32.931Z,35.64
2022-08-03T09:24:04.795Z,35.78
2022-08-03T09:26:34.298Z,33.59
2022-08-03T09:32:03.020Z,33.42
2022-08-03T09:34:30.721Z,34.74
2022-08-03T09:37:00.706Z,35.42
2022-08-03T09:39:42.184Z,35.30
2022-08-03T09:42:15.070Z,35.05
2022-08-03T09:44:44.673Z,36.26
2022-08-03T09:47:13.265Z,37.80
2022-08-03T09:49:42.087Z,38.96
2022-08-03T09:52:32.222Z,40.17
2022-08-03T09:55:02.910Z,40.70
2022-08-03T09:57:31.148Z,38.97
2022-08-03T10:00:12.723Z,37.94
2022-08-03T10:02:41.651Z,36.78
2022-08-03T10:05:10.580Z,35.38
2022-08-03T10:07:46.032Z,35.98
2022-08-03T10:10:28.891Z,35.68
2022-08-03T10:13:00.371Z,33.48
2022-08-03T10:16:22.448Z,32.70
2022-08-03T10:18:14.741Z,33.29
2022-08-03T10:20:50.023Z,33.89
2022-08-03T10:23:18.287Z,34.82
2022-08-03T10:25:48.496Z,35.30
2022-08-03T10:28:18.451Z,34.50
2022-08-03T10:30:49.293Z,34.76
2022-08-03T10:33:51.416Z,35.94
2022-08-03T10:36:13.898Z,37.71
2022-08-03T10:38:49.665Z,38.04
2022-08-03T10:41:20.641Z,40.01
2022-08-03T10:43:59.165Z,40.86
2022-08-03T10:46:27.419Z,41.85
2022-08-03T10:48:56.680Z,42.73
2022-08-03T10:51:24.246Z,43.53
2022-08-03T10:53:54.658Z,43.63
2022-08-03T10:56:54.401Z,43.67
2022-08-03T10:59:59.472Z,43.85
2022-08-03T11:03:06.225Z,43.74
2022-08-03T11:05:53.653Z,44.55
2022-08-03T11:08:24.439Z,48.44
2022-08-03T11:10:53.860Z,56.02
2022-08-03T11:13:22.968Z,59.47
2022-08-03T11:15:52.965Z,60.35
2022-08-03T11:18:27.424Z,61.07
2022-08-03T11:20:59.440Z,63.34
2022-08-03T11:24:03.338Z,67.90
2022-08-03T11:26:33.798Z,69.84
2022-08-03T11:29:29.628Z,73.69
2022-08-03T11:31:56.752Z,75.15
2022-08-03T11:34:24.684Z,77.27
2022-08-03T11:37:30.178Z,79.63
2022-08-03T11:39:59.765Z,79.47
2022-08-03T11:42:27.185Z,79.44
2022-08-03T11:44:55.971Z,77.96
2022-08-03T11:47:24.462Z,72.48
2022-08-03T11:49:53.992Z,65.83
2022-08-03T11:52:26.940Z,63.06
2022-08-03T11:54:57.197Z,62.06
2022-08-03T11:59:18.874Z,61.52
2022-08-03T12:00:32.761Z,61.54
2022-08-03T12:03:03.834Z,63.20
2022-08-03T12:05:35.610Z,64.55
2022-08-03T12:08:06.449Z,65.80
2022-08-03T12:10:34.582Z,68.35
2022-08-03T12:13:05.921Z,69.93
2022-08-03T12:15:59.184Z,72.16
2022-08-03T12:18:26.231Z,74.05
2022-08-03T12:21:03.348Z,75.66
2022-08-03T12:23:30.879Z,77.03
2022-08-03T12:26:08.081Z,77.44
2022-08-03T12:28:37.930Z,77.87
2022-08-03T12:31:07.674Z,77.80
2022-08-03T12:33:59.217Z,78.75
2022-08-03T12:36:28.860Z,78.94
2022-08-03T12:38:59.117Z,79.58
2022-08-03T12:41:40.777Z,75.95
2022-08-03T12:44:09.601Z,73.70
2022-08-03T12:46:46.946Z,71.27
2022-08-03T12:49:17.363Z,67.53
2022-08-03T12:51:44.180Z,64.04
2022-08-03T12:54:32.630Z,62.41
2022-08-03T12:56:59.838Z,56.94
2022-08-03T12:59:32.337Z,51.74
2022-08-03T13:02:16.462Z,46.90
2022-08-03T13:04:50.080Z,43.64
2022-08-03T13:07:18.508Z,41.57
2022-08-03T13:09:47.639Z,40.53
2022-08-03T13:12:22.742Z,41.34
2022-08-03T13:14:55.738Z,41.87
2022-08-03T13:17:22.850Z,45.06
2022-08-03T13:19:51.346Z,46.88
2022-08-03T13:22:24.371Z,49.56
2022-08-03T13:24:55.875Z,51.70
2022-08-03T13:28:04.198Z,52.96
2022-08-03T13:30:10.403Z,53.84
2022-08-03T13:32:37.461Z,54.92
2022-08-03T13:35:05.525Z,55.50
2022-08-03T13:37:32.623Z,55.66
2022-08-03T13:40:02.522Z,55.58
2022-08-03T13:42:31.848Z,54.30
2022-08-03T13:44:59.961Z,53.12
2022-08-03T13:47:27.719Z,52.05
2022-08-03T13:50:01.510Z,50.41
2022-08-03T13:52:33.849Z,48.90
2022-08-03T13:55:01.891Z,49.57
2022-08-03T13:58:02.554Z,49.58
2022-08-03T14:00:27.497Z,52.31
2022-08-03T14:03:02.996Z,54.06
2022-08-03T14:05:33.473Z,56.61
2022-08-03T14:08:04.897Z,57.44
2022-08-03T14:10:33.905Z,58.94
2022-08-03T14:13:00.816Z,61.82
2022-08-03T14:15:28.837Z,64.36
2022-08-03T14:17:58.552Z,64.98
2022-08-03T14:20:37.850Z,66.69
2022-08-03T14:23:14.351Z,68.27
2022-08-03T14:25:44.416Z,69.33
2022-08-03T14:28:18.468Z,70.07
2022-08-03T14:30:46.233Z,69.75
2022-08-03T14:33:13.184Z,69.73
2022-08-03T14:35:40.264Z,69.53
2022-08-03T14:38:07.172Z,68.60
2022-08-03T14:40:34.102Z,67.93
2022-08-03T14:43:01.007Z,66.77
2022-08-03T14:45:27.875Z,64.83
2022-08-03T14:50:10.426Z,63.18
2022-08-03T14:50:51.042Z,61.20
2022-08-03T14:53:19.606Z,58.11
2022-08-03T14:55:50.878Z,55.21
2022-08-03T14:58:22.992Z,51.97
2022-08-03T15:00:51.748Z,49.96
2022-08-03T15:03:23.136Z,49.25
2022-08-03T15:05:55.557Z,49.27
2022-08-03T15:08:23.409Z,51.84
2022-08-03T15:10:50.671Z,55.79
2022-08-03T15:13:18.287Z,57.85
2022-08-03T15:15:45.493Z,60.15
2022-08-03T15:18:12.444Z,61.98
2022-08-03T15:20:44.998Z,63.57
2022-08-03T15:23:13.990Z,65.09
2022-08-03T15:26:28.462Z,66.92
2022-08-03T15:28:27.920Z,67.53
2022-08-03T15:33:50.762Z,69.81
2022-08-03T15:36:21.547Z,73.60
2022-08-03T15:38:48.601Z,74.45
2022-08-03T15:41:15.647Z,74.96
2022-08-03T15:43:42.609Z,75.68
2022-08-03T15:46:30.407Z,75.98
2022-08-03T15:48:57.133Z,76.15
2022-08-03T15:51:24.044Z,76.98
2022-08-03T15:53:50.902Z,76.51
2022-08-03T15:56:18.843Z,77.14
2022-08-03T15:59:10.065Z,77.84
2022-08-03T16:01:32.924Z,77.85
2022-08-03T16:03:59.964Z,78.80
2022-08-03T16:06:35.032Z,78.77
2022-08-03T16:09:05.610Z,78.40
2022-08-03T16:11:51.410Z,79.65
2022-08-03T16:14:33.537Z,82.01
2022-08-03T16:17:05.170Z,83.31
2022-08-03T16:19:32.000Z,83.19
2022-08-03T16:21:59.425Z,84.72
2022-08-03T16:24:28.214Z,84.83
2022-08-03T16:26:55.953Z,85.47
2022-08-03T16:29:23.571Z,85.79
2022-08-03T16:31:51.556Z,85.92
2022-08-03T16:34:18.995Z,86.56
2022-08-03T16:36:45.978Z,87.56
2022-08-03T16:39:12.918Z,87.97
2022-08-03T16:41:53.909Z,88.69
2022-08-03T16:44:27.031Z,88.60
2022-08-03T16:46:55.293Z,88.89
2022-08-03T16:49:53.763Z,89.33
2022-08-03T16:52:09.241Z,89.90
2022-08-03T16:54:39.913Z,90.43
2022-08-03T16:57:07.554Z,90.54
2022-08-03T16:59:36.708Z,90.72
2022-08-03T17:02:09.702Z,91.08
2022-08-03T17:04:36.990Z,90.66
2022-08-03T17:07:18.686Z,91.20
2022-08-03T17:09:47.861Z,91.40
2022-08-03T17:12:16.781Z,91.51
2022-08-03T17:14:45.000Z,91.50
2022-08-03T17:17:47.654Z,91.64
2022-08-03T17:20:21.773Z,91.83
2022-08-03T17:23:03.232Z,92.34
2022-08-03T17:25:39.759Z,93.17
2022-08-03T17:28:48.490Z,93.92
2022-08-03T17:31:23.496Z,94.63
2022-08-03T17:34:01.669Z,94.34
2022-08-03T17:37:01.661Z,94.74
2022-08-03T17:39:23.547Z,95.11
2022-08-03T17:42:00.844Z,95.26
2022-08-03T17:44:41.453Z,95.01
2022-08-03T17:47:11.077Z,95.18
2022-08-03T17:49:40.048Z,95.75
2022-08-03T17:52:41.510Z,95.89
2022-08-03T17:55:57.871Z,96.32
2022-08-03T17:58:17.583Z,96.48
2022-08-03T18:02:00.351Z,96.77
2022-08-03T18:03:59.259Z,97.06
2022-08-03T18:06:31.284Z,97.21
2022-08-03T18:09:04.664Z,97.21
2022-08-03T18:15:00.676Z,97.91
2022-08-03T18:17:55.001Z,98.38
2022-08-03T18:20:31.282Z,98.30
2022-08-03T18:23:04.814Z,98.08
2022-08-03T18:25:56.132Z,98.21
2022-08-03T18:28:27.027Z,98.34
2022-08-03T18:30:55.284Z,98.48
2022-08-03T18:34:19.856Z,98.79
2022-08-03T18:36:21.755Z,98.51
2022-08-03T18:38:53.879Z,98.68
2022-08-03T18:41:33.311Z,98.86
2022-08-03T18:44:08.349Z,99.34
2022-08-03T18:50:21.343Z,99.84
2022-08-03T18:53:02.781Z,99.83
2022-08-03T18:55:35.814Z,100.00
2022-08-03T18:58:18.206Z,99.77
2022-08-03T19:01:15.255Z,99.87
2022-08-03T19:03:58.489Z,99.93
2022-08-03T19:06:29.834Z,99.87
2022-08-03T19:09:09.490Z,100.00
2022-08-03T19:12:13.274Z,100.00
2022-08-03T19:14:41.696Z,100.00
2022-08-03T19:17:11.369Z,100.00
2022-08-03T19:19:44.554Z,100.00
2022-08-03T19:22:16.040Z,100.00
2022-08-03T19:24:45.650Z,100.00
2022-08-03T19:27:15.881Z,100.00
2022-08-03T19:29:59.387Z,100.00
2022-08-03T19:32:32.255Z,100.00
2022-08-03T19:35:01.953Z,100.00
2022-08-03T19:37:38.263Z,100.00
2022-08-03T19:40:10.236Z,100.00
2022-08-03T19:42:44.636Z,100.00
2022-08-03T19:45:15.626Z,100.00
2022-08-03T19:47:52.542Z,100.00
2022-08-03T19:50:20.656Z,100.00
2022-08-03T19:52:49.730Z,100.00
2022-08-03T19:55:17.915Z,100.00
2022-08-03T19:57:49.150Z,100.00
2022-08-03T20:00:19.978Z,100.00
2022-08-03T20:02:53.222Z,100.00
2022-08-03T20:05:20.530Z,100.00
2022-08-03T20:07:48.047Z,100.00
2022-08-03T20:10:17.644Z,100.00
2022-08-03T20:12:46.382Z,100.00
2022-08-03T20:15:14.023Z,100.00
2022-08-03T20:17:55.416Z,100.00
2022-08-03T20:20:37.333Z,100.00
2022-08-03T20:23:11.493Z,100.00
2022-08-03T20:25:55.692Z,100.00
2022-08-03T20:28:50.180Z,100.00
2022-08-03T20:31:20.806Z,100.00
2022-08-03T20:33:49.618Z,100.00
2022-08-03T20:36:18.572Z,100.00
2022-08-03T20:38:47.856Z,100.00
2022-08-03T20:41:18.716Z,100.00
2022-08-03T20:43:49.292Z,100.00
2022-08-03T20:46:32.639Z,100.00
2022-08-03T20:49:06.702Z,100.00
2022-08-03T20:51:48.941Z,100.00
2022-08-03T20:54:22.768Z,100.00
2022-08-03T20:56:58.098Z,100.00
2022-08-03T20:59:35.063Z,100.00
2022-08-03T21:02:05.570Z,100.00
2022-08-03T21:04:32.424Z,100.00
2022-08-03T21:07:03.744Z,100.00
2022-08-03T21:09:56.051Z,100.00
2022-08-03T21:12:33.919Z,100.00
2022-08-03T21:13:00.462Z,99.70
2022-08-03T21:13:04.918Z,97.48
2022-08-03T21:15:06.145Z,100.00
2022-08-03T21:17:40.974Z,100.00
2022-08-03T21:20:10.826Z,100.00
2022-08-03T21:22:39.241Z,100.00
2022-08-03T21:25:09.353Z,100.00
2022-08-03T21:27:37.289Z,100.00
2022-08-03T21:30:09.959Z,100.00
2022-08-03T21:32:40.347Z,100.00
2022-08-03T21:35:10.713Z,100.00
2022-08-03T21:37:42.112Z,100.00
2022-08-03T21:40:13.272Z,100.00
2022-08-03T21:42:41.539Z,100.00
2022-08-03T21:45:16.887Z,100.00
2022-08-03T21:47:45.316Z,100.00
2022-08-03T21:50:13.618Z,100.00
2022-08-03T21:52:43.604Z,100.00
2022-08-03T21:55:20.591Z,100.00
2022-08-03T21:57:53.196Z,100.00
2022-08-03T22:00:23.200Z,100.00
2022-08-03T22:02:57.237Z,100.00
2022-08-03T22:05:42.574Z,100.00
2022-08-03T22:08:14.886Z,100.00
2022-08-03T22:10:45.087Z,100.00
2022-08-03T22:13:14.408Z,100.00
2022-08-03T22:15:42.094Z,100.00
2022-08-03T22:18:09.465Z,100.00
2022-08-03T22:20:37.806Z,100.00
2022-08-03T22:23:06.918Z,100.00
2022-08-03T22:25:36.708Z,100.00
2022-08-03T22:28:10.414Z,100.00
2022-08-03T22:30:38.876Z,100.00
2022-08-03T22:33:11.509Z,100.00
2022-08-03T22:35:47.791Z,100.00
2022-08-03T22:38:17.578Z,100.00
2022-08-03T22:40:47.083Z,100.00
2022-08-03T22:43:14.445Z,100.00
2022-08-03T22:46:09.463Z,100.00
2022-08-03T22:48:34.463Z,100.00
2022-08-03T22:51:02.775Z,100.00
2022-08-03T22:53:30.137Z,100.00
2022-08-03T22:55:59.087Z,100.00
2022-08-03T22:58:25.905Z,100.00
2022-08-03T23:00:56.431Z,100.00
2022-08-03T23:04:00.805Z,100.00
2022-08-03T23:06:21.646Z,100.00
2022-08-03T23:08:50.321Z,100.00
2022-08-03T23:11:18.818Z,100.00
2022-08-03T23:13:52.328Z,100.00
2022-08-03T23:16:29.625Z,100.00
2022-08-03T23:18:59.545Z,100.00
2022-08-03T23:21:53.822Z,100.00
2022-08-03T23:24:26.083Z,100.00
2022-08-03T23:26:58.167Z,100.00
2022-08-03T23:29:26.623Z,100.00
2022-08-03T23:31:54.339Z,100.00
2022-08-03T23:34:41.947Z,100.00
2022-08-03T23:37:09.542Z,100.00
2022-08-03T23:39:38.088Z,100.00
2022-08-03T23:42:06.095Z,100.00
2022-08-03T23:44:36.776Z,100.00
2022-08-03T23:47:03.866Z,100.00
2022-08-03T23:49:30.837Z,100.00
2022-08-03T23:52:14.678Z,100.00
2022-08-03T23:54:41.512Z,100.00
2022-08-03T23:57:17.319Z,100.00
